Terminal Aerodrome Forecast
Issued by NWS Boston, MA

Home | Current Version | Previous Version | Text Only | Print | Product List | Glossary On
Versions: 1 2 3 4 5 6 7 8 9 10 11 12 13 14 15 16 17 18 19 20 21 22 23 24 25
000
FTUS41 KBOX 240303 AAA
TAFBOS
TAF AMD
KBOS 240303Z 2403/2506 19004KT P6SM FEW150 BKN250
     FM241200 07003KT P6SM OVC110
     FM241800 10008KT P6SM BKN080
     FM242200 06007KT P6SM SCT090
     FM250300 09004KT P6SM BKN100=

USA.gov is the U.S. government's official web portal to all federal, state and local government web resources and services.